sensor_id;sensor_type;location;lat;lon;timestamp;P1;durP1;ratioP1;P2;durP2;ratioP2
22460;SDS011;11397;48.410;11.468;2022-08-21T00:03:32;8.68;;;8.38;;
22460;SDS011;11397;48.410;11.468;2022-08-21T00:08:34;8.25;;;7.95;;
22460;SDS011;11397;48.410;11.468;2022-08-21T00:13:37;9.10;;;8.80;;
22460;SDS011;11397;48.410;11.468;2022-08-21T00:18:39;8.52;;;8.23;;
22460;SDS011;11397;48.410;11.468;2022-08-21T00:23:41;7.97;;;7.68;;
22460;SDS011;11397;48.410;11.468;2022-08-21T00:28:44;8.98;;;8.68;;
22460;SDS011;11397;48.410;11.468;2022-08-21T00:33:46;7.70;;;7.40;;
22460;SDS011;11397;48.410;11.468;2022-08-21T00:38:47;7.57;;;7.28;;
22460;SDS011;11397;48.410;11.468;2022-08-21T00:43:50;8.40;;;8.10;;
22460;SDS011;11397;48.410;11.468;2022-08-21T00:48:52;8.38;;;8.07;;
22460;SDS011;11397;48.410;11.468;2022-08-21T00:53:54;8.80;;;8.50;;
22460;SDS011;11397;48.410;11.468;2022-08-21T00:58:58;7.82;;;7.53;;
22460;SDS011;11397;48.410;11.468;2022-08-21T01:04:00;7.88;;;7.57;;
22460;SDS011;11397;48.410;11.468;2022-08-21T01:09:02;8.30;;;8.00;;
22460;SDS011;11397;48.410;11.468;2022-08-21T01:14:04;8.18;;;7.88;;
22460;SDS011;11397;48.410;11.468;2022-08-21T01:19:06;8.85;;;8.55;;
22460;SDS011;11397;48.410;11.468;2022-08-21T01:24:11;8.10;;;7.80;;
22460;SDS011;11397;48.410;11.468;2022-08-21T01:29:14;8.95;;;8.65;;
22460;SDS011;11397;48.410;11.468;2022-08-21T01:34:17;7.75;;;7.45;;
22460;SDS011;11397;48.410;11.468;2022-08-21T01:39:20;8.10;;;7.80;;
22460;SDS011;11397;48.410;11.468;2022-08-21T01:44:21;8.27;;;7.97;;
22460;SDS011;11397;48.410;11.468;2022-08-21T01:49:23;8.20;;;7.90;;
22460;SDS011;11397;48.410;11.468;2022-08-21T01:54:26;8.07;;;7.78;;
22460;SDS011;11397;48.410;11.468;2022-08-21T01:59:27;8.30;;;8.00;;
22460;SDS011;11397;48.410;11.468;2022-08-21T02:04:29;7.55;;;7.25;;
22460;SDS011;11397;48.410;11.468;2022-08-21T02:09:33;8.30;;;8.00;;
22460;SDS011;11397;48.410;11.468;2022-08-21T02:14:35;8.40;;;8.10;;
22460;SDS011;11397;48.410;11.468;2022-08-21T02:19:37;8.55;;;8.25;;
22460;SDS011;11397;48.410;11.468;2022-08-21T02:24:40;8.27;;;7.97;;
22460;SDS011;11397;48.410;11.468;2022-08-21T02:29:41;9.07;;;8.77;;
22460;SDS011;11397;48.410;11.468;2022-08-21T02:34:43;8.65;;;8.35;;
22460;SDS011;11397;48.410;11.468;2022-08-21T02:39:46;8.30;;;8.00;;
22460;SDS011;11397;48.410;11.468;2022-08-21T02:44:48;8.52;;;8.23;;
22460;SDS011;11397;48.410;11.468;2022-08-21T02:49:49;8.30;;;8.00;;
22460;SDS011;11397;48.410;11.468;2022-08-21T02:54:52;7.40;;;7.13;;
22460;SDS011;11397;48.410;11.468;2022-08-21T02:59:54;7.80;;;7.50;;
22460;SDS011;11397;48.410;11.468;2022-08-21T03:04:55;7.90;;;7.60;;
22460;SDS011;11397;48.410;11.468;2022-08-21T03:09:58;6.80;;;6.60;;
22460;SDS011;11397;48.410;11.468;2022-08-21T03:15:00;7.38;;;7.10;;
22460;SDS011;11397;48.410;11.468;2022-08-21T03:20:02;8.77;;;8.48;;
22460;SDS011;11397;48.410;11.468;2022-08-21T03:25:06;6.95;;;6.75;;
22460;SDS011;11397;48.410;11.468;2022-08-21T03:30:08;8.43;;;8.13;;
22460;SDS011;11397;48.410;11.468;2022-08-21T03:35:10;8.40;;;8.10;;
22460;SDS011;11397;48.410;11.468;2022-08-21T03:40:15;8.88;;;8.57;;
22460;SDS011;11397;48.410;11.468;2022-08-21T03:45:17;6.80;;;6.60;;
22460;SDS011;11397;48.410;11.468;2022-08-21T03:50:19;8.10;;;7.80;;
22460;SDS011;11397;48.410;11.468;2022-08-21T03:55:23;7.47;;;7.18;;
22460;SDS011;11397;48.410;11.468;2022-08-21T04:00:25;7.90;;;7.60;;
22460;SDS011;11397;48.410;11.468;2022-08-21T04:05:26;6.85;;;6.65;;
22460;SDS011;11397;48.410;11.468;2022-08-21T04:10:30;6.35;;;6.15;;
22460;SDS011;11397;48.410;11.468;2022-08-21T04:15:32;6.90;;;6.70;;
22460;SDS011;11397;48.410;11.468;2022-08-21T04:20:34;6.75;;;6.55;;
22460;SDS011;11397;48.410;11.468;2022-08-21T04:25:37;7.07;;;6.88;;
22460;SDS011;11397;48.410;11.468;2022-08-21T04:30:39;6.93;;;6.72;;
22460;SDS011;11397;48.410;11.468;2022-08-21T04:35:40;6.45;;;6.25;;
22460;SDS011;11397;48.410;11.468;2022-08-21T04:40:44;6.70;;;6.50;;
22460;SDS011;11397;48.410;11.468;2022-08-21T04:45:46;6.63;;;6.43;;
22460;SDS011;11397;48.410;11.468;2022-08-21T04:50:49;6.25;;;6.05;;
22460;SDS011;11397;48.410;11.468;2022-08-21T04:55:53;7.03;;;6.82;;
22460;SDS011;11397;48.410;11.468;2022-08-21T05:00:56;6.80;;;6.60;;
22460;SDS011;11397;48.410;11.468;2022-08-21T05:05:59;5.57;;;5.38;;
22460;SDS011;11397;48.410;11.468;2022-08-21T05:11:03;6.38;;;6.18;;
22460;SDS011;11397;48.410;11.468;2022-08-21T05:16:05;6.22;;;6.03;;
22460;SDS011;11397;48.410;11.468;2022-08-21T05:21:07;6.55;;;6.35;;
22460;SDS011;11397;48.410;11.468;2022-08-21T05:26:11;6.80;;;6.60;;
22460;SDS011;11397;48.410;11.468;2022-08-21T05:31:12;6.35;;;6.15;;
22460;SDS011;11397;48.410;11.468;2022-08-21T05:36:14;6.90;;;6.70;;
22460;SDS011;11397;48.410;11.468;2022-08-21T05:41:17;6.95;;;6.75;;
22460;SDS011;11397;48.410;11.468;2022-08-21T05:46:18;6.75;;;6.55;;
22460;SDS011;11397;48.410;11.468;2022-08-21T05:51:20;6.38;;;6.18;;
22460;SDS011;11397;48.410;11.468;2022-08-21T05:56:23;5.78;;;5.57;;
22460;SDS011;11397;48.410;11.468;2022-08-21T06:01:25;5.53;;;5.32;;
22460;SDS011;11397;48.410;11.468;2022-08-21T06:06:26;6.40;;;6.20;;
22460;SDS011;11397;48.410;11.468;2022-08-21T06:11:29;6.47;;;6.28;;
22460;SDS011;11397;48.410;11.468;2022-08-21T06:16:31;5.80;;;5.60;;
22460;SDS011;11397;48.410;11.468;2022-08-21T06:21:33;7.90;;;7.60;;
22460;SDS011;11397;48.410;11.468;2022-08-21T06:26:36;6.68;;;6.47;;
22460;SDS011;11397;48.410;11.468;2022-08-21T06:31:39;6.95;;;6.75;;
22460;SDS011;11397;48.410;11.468;2022-08-21T06:36:41;6.65;;;6.45;;
22460;SDS011;11397;48.410;11.468;2022-08-21T06:41:45;7.22;;;7.00;;
22460;SDS011;11397;48.410;11.468;2022-08-21T06:46:46;6.72;;;6.53;;
22460;SDS011;11397;48.410;11.468;2022-08-21T06:51:48;7.30;;;7.05;;
22460;SDS011;11397;48.410;11.468;2022-08-21T06:56:51;6.95;;;6.75;;
22460;SDS011;11397;48.410;11.468;2022-08-21T07:01:53;7.95;;;7.65;;
22460;SDS011;11397;48.410;11.468;2022-08-21T07:06:55;7.20;;;7.00;;
22460;SDS011;11397;48.410;11.468;2022-08-21T07:11:58;7.68;;;7.38;;
22460;SDS011;11397;48.410;11.468;2022-08-21T07:17:00;7.18;;;6.97;;
22460;SDS011;11397;48.410;11.468;2022-08-21T07:22:01;8.40;;;8.10;;
22460;SDS011;11397;48.410;11.468;2022-08-21T07:27:05;6.75;;;6.55;;
22460;SDS011;11397;48.410;11.468;2022-08-21T07:32:06;7.35;;;7.10;;
22460;SDS011;11397;48.410;11.468;2022-08-21T07:37:08;8.23;;;7.93;;
22460;SDS011;11397;48.410;11.468;2022-08-21T07:42:11;7.13;;;6.93;;
22460;SDS011;11397;48.410;11.468;2022-08-21T07:47:13;7.55;;;7.25;;
22460;SDS011;11397;48.410;11.468;2022-08-21T07:52:14;7.72;;;7.43;;
22460;SDS011;11397;48.410;11.468;2022-08-21T07:57:21;7.15;;;6.95;;
22460;SDS011;11397;48.410;11.468;2022-08-21T08:02:23;6.80;;;6.60;;
22460;SDS011;11397;48.410;11.468;2022-08-21T08:07:25;7.18;;;6.97;;
22460;SDS011;11397;48.410;11.468;2022-08-21T08:12:28;7.72;;;7.43;;
22460;SDS011;11397;48.410;11.468;2022-08-21T08:17:30;6.20;;;6.00;;
22460;SDS011;11397;48.410;11.468;2022-08-21T08:22:33;6.85;;;6.65;;
22460;SDS011;11397;48.410;11.468;2022-08-21T08:27:36;7.85;;;7.55;;
22460;SDS011;11397;48.410;11.468;2022-08-21T08:32:38;7.00;;;6.80;;
22460;SDS011;11397;48.410;11.468;2022-08-21T08:37:40;7.40;;;7.10;;
22460;SDS011;11397;48.410;11.468;2022-08-21T08:42:43;6.38;;;6.18;;
22460;SDS011;11397;48.410;11.468;2022-08-21T08:47:47;7.25;;;7.05;;
22460;SDS011;11397;48.410;11.468;2022-08-21T08:52:52;7.32;;;7.05;;
22460;SDS011;11397;48.410;11.468;2022-08-21T08:57:59;6.05;;;5.85;;
22460;SDS011;11397;48.410;11.468;2022-08-21T09:03:02;6.90;;;6.70;;
22460;SDS011;11397;48.410;11.468;2022-08-21T09:08:11;6.80;;;6.60;;
22460;SDS011;11397;48.410;11.468;2022-08-21T09:13:18;7.13;;;6.93;;
22460;SDS011;11397;48.410;11.468;2022-08-21T09:18:25;6.50;;;6.30;;
22460;SDS011;11397;48.410;11.468;2022-08-21T09:23:31;6.43;;;6.22;;
22460;SDS011;11397;48.410;11.468;2022-08-21T09:28:35;7.15;;;6.95;;
22460;SDS011;11397;48.410;11.468;2022-08-21T09:33:36;6.85;;;6.65;;
22460;SDS011;11397;48.410;11.468;2022-08-21T09:38:38;6.55;;;6.35;;
22460;SDS011;11397;48.410;11.468;2022-08-21T09:43:51;5.38;;;5.18;;
22460;SDS011;11397;48.410;11.468;2022-08-21T09:48:54;6.82;;;6.63;;
22460;SDS011;11397;48.410;11.468;2022-08-21T09:53:57;7.10;;;6.90;;
22460;SDS011;11397;48.410;11.468;2022-08-21T09:59:00;6.70;;;6.50;;
22460;SDS011;11397;48.410;11.468;2022-08-21T10:04:03;6.13;;;5.93;;
22460;SDS011;11397;48.410;11.468;2022-08-21T10:09:06;5.55;;;5.35;;
22460;SDS011;11397;48.410;11.468;2022-08-21T10:14:12;6.38;;;6.18;;
22460;SDS011;11397;48.410;11.468;2022-08-21T10:19:16;6.43;;;6.22;;
22460;SDS011;11397;48.410;11.468;2022-08-21T10:24:23;6.38;;;6.18;;
22460;SDS011;11397;48.410;11.468;2022-08-21T10:29:35;6.32;;;6.13;;
22460;SDS011;11397;48.410;11.468;2022-08-21T10:34:41;6.13;;;5.93;;
22460;SDS011;11397;48.410;11.468;2022-08-21T10:39:46;6.25;;;6.05;;
22460;SDS011;11397;48.410;11.468;2022-08-21T10:44:54;5.70;;;5.50;;
22460;SDS011;11397;48.410;11.468;2022-08-21T10:49:59;6.47;;;6.28;;
22460;SDS011;11397;48.410;11.468;2022-08-21T10:55:05;5.18;;;4.97;;
22460;SDS011;11397;48.410;11.468;2022-08-21T11:00:10;5.43;;;5.22;;
22460;SDS011;11397;48.410;11.468;2022-08-21T11:05:14;6.30;;;6.10;;
22460;SDS011;11397;48.410;11.468;2022-08-21T11:10:18;5.68;;;5.47;;
22460;SDS011;11397;48.410;11.468;2022-08-21T11:15:34;5.63;;;5.43;;
22460;SDS011;11397;48.410;11.468;2022-08-21T11:20:39;5.30;;;5.10;;
22460;SDS011;11397;48.410;11.468;2022-08-21T11:25:42;6.00;;;5.80;;
22460;SDS011;11397;48.410;11.468;2022-08-21T11:30:50;5.28;;;5.07;;
22460;SDS011;11397;48.410;11.468;2022-08-21T11:35:55;5.78;;;5.57;;
22460;SDS011;11397;48.410;11.468;2022-08-21T11:41:15;6.43;;;6.22;;
22460;SDS011;11397;48.410;11.468;2022-08-21T11:46:31;6.30;;;6.10;;
22460;SDS011;11397;48.410;11.468;2022-08-21T11:51:36;5.78;;;5.57;;
22460;SDS011;11397;48.410;11.468;2022-08-21T11:56:39;5.53;;;5.32;;
22460;SDS011;11397;48.410;11.468;2022-08-21T12:01:44;5.95;;;5.75;;
22460;SDS011;11397;48.410;11.468;2022-08-21T12:06:46;5.40;;;5.20;;
22460;SDS011;11397;48.410;11.468;2022-08-21T12:11:50;5.85;;;5.65;;
22460;SDS011;11397;48.410;11.468;2022-08-21T12:16:53;5.72;;;5.53;;
22460;SDS011;11397;48.410;11.468;2022-08-21T12:22:08;5.78;;;5.57;;
22460;SDS011;11397;48.410;11.468;2022-08-21T12:27:18;5.10;;;4.90;;
22460;SDS011;11397;48.410;11.468;2022-08-21T12:32:26;5.35;;;5.15;;
22460;SDS011;11397;48.410;11.468;2022-08-21T12:37:33;5.15;;;4.95;;
22460;SDS011;11397;48.410;11.468;2022-08-21T12:42:37;5.45;;;5.25;;
22460;SDS011;11397;48.410;11.468;2022-08-21T12:47:49;5.13;;;4.93;;
22460;SDS011;11397;48.410;11.468;2022-08-21T12:52:57;5.40;;;5.20;;
22460;SDS011;11397;48.410;11.468;2022-08-21T12:57:59;5.25;;;5.05;;
22460;SDS011;11397;48.410;11.468;2022-08-21T13:03:03;4.40;;;4.30;;
22460;SDS011;11397;48.410;11.468;2022-08-21T13:08:05;4.90;;;4.80;;
22460;SDS011;11397;48.410;11.468;2022-08-21T13:13:09;4.70;;;4.60;;
22460;SDS011;11397;48.410;11.468;2022-08-21T13:18:20;5.22;;;5.03;;
22460;SDS011;11397;48.410;11.468;2022-08-21T13:23:24;5.35;;;5.15;;
22460;SDS011;11397;48.410;11.468;2022-08-21T13:28:31;4.95;;;4.85;;
22460;SDS011;11397;48.410;11.468;2022-08-21T13:33:36;5.40;;;5.20;;
22460;SDS011;11397;48.410;11.468;2022-08-21T13:38:39;4.53;;;4.43;;
22460;SDS011;11397;48.410;11.468;2022-08-21T13:43:43;4.72;;;4.57;;
22460;SDS011;11397;48.410;11.468;2022-08-21T13:48:46;5.13;;;4.93;;
22460;SDS011;11397;48.410;11.468;2022-08-21T13:53:49;4.82;;;4.72;;
22460;SDS011;11397;48.410;11.468;2022-08-21T13:58:53;4.78;;;4.68;;
22460;SDS011;11397;48.410;11.468;2022-08-21T14:03:56;4.38;;;4.28;;
22460;SDS011;11397;48.410;11.468;2022-08-21T14:09:00;4.65;;;4.55;;
22460;SDS011;11397;48.410;11.468;2022-08-21T14:14:02;4.53;;;4.43;;
22460;SDS011;11397;48.410;11.468;2022-08-21T14:19:09;4.78;;;4.68;;
22460;SDS011;11397;48.410;11.468;2022-08-21T14:24:12;4.93;;;4.82;;
22460;SDS011;11397;48.410;11.468;2022-08-21T14:29:14;4.75;;;4.65;;
22460;SDS011;11397;48.410;11.468;2022-08-21T14:34:18;4.50;;;4.40;;
22460;SDS011;11397;48.410;11.468;2022-08-21T14:39:19;5.03;;;4.93;;
22460;SDS011;11397;48.410;11.468;2022-08-21T14:44:24;4.72;;;4.63;;
22460;SDS011;11397;48.410;11.468;2022-08-21T14:49:28;4.97;;;4.88;;
22460;SDS011;11397;48.410;11.468;2022-08-21T14:54:30;5.25;;;5.05;;
22460;SDS011;11397;48.410;11.468;2022-08-21T14:59:32;4.70;;;4.60;;
22460;SDS011;11397;48.410;11.468;2022-08-21T15:04:35;4.78;;;4.68;;
22460;SDS011;11397;48.410;11.468;2022-08-21T15:09:37;5.28;;;5.07;;
22460;SDS011;11397;48.410;11.468;2022-08-21T15:14:39;4.65;;;4.55;;
22460;SDS011;11397;48.410;11.468;2022-08-21T15:19:42;4.68;;;4.57;;
22460;SDS011;11397;48.410;11.468;2022-08-21T15:24:44;5.03;;;4.88;;
22460;SDS011;11397;48.410;11.468;2022-08-21T15:29:46;4.35;;;4.25;;
22460;SDS011;11397;48.410;11.468;2022-08-21T15:34:49;5.05;;;4.85;;
22460;SDS011;11397;48.410;11.468;2022-08-21T15:39:51;5.30;;;5.10;;
22460;SDS011;11397;48.410;11.468;2022-08-21T15:44:53;5.70;;;5.50;;
22460;SDS011;11397;48.410;11.468;2022-08-21T15:49:56;5.78;;;5.57;;
22460;SDS011;11397;48.410;11.468;2022-08-21T15:54:58;5.97;;;5.78;;
22460;SDS011;11397;48.410;11.468;2022-08-21T16:00:00;5.18;;;4.97;;
22460;SDS011;11397;48.410;11.468;2022-08-21T16:05:13;5.43;;;5.22;;
22460;SDS011;11397;48.410;11.468;2022-08-21T16:10:17;5.40;;;5.20;;
22460;SDS011;11397;48.410;11.468;2022-08-21T16:15:19;5.45;;;5.25;;
22460;SDS011;11397;48.410;11.468;2022-08-21T16:20:23;5.20;;;5.00;;
22460;SDS011;11397;48.410;11.468;2022-08-21T16:25:26;5.50;;;5.30;;
22460;SDS011;11397;48.410;11.468;2022-08-21T16:30:27;5.55;;;5.35;;
22460;SDS011;11397;48.410;11.468;2022-08-21T16:35:31;6.15;;;5.95;;
22460;SDS011;11397;48.410;11.468;2022-08-21T16:40:32;5.57;;;5.38;;
22460;SDS011;11397;48.410;11.468;2022-08-21T16:45:34;6.70;;;6.50;;
22460;SDS011;11397;48.410;11.468;2022-08-21T16:50:37;5.90;;;5.70;;
22460;SDS011;11397;48.410;11.468;2022-08-21T16:55:38;5.80;;;5.60;;
22460;SDS011;11397;48.410;11.468;2022-08-21T17:00:40;5.43;;;5.22;;
22460;SDS011;11397;48.410;11.468;2022-08-21T17:05:43;5.57;;;5.38;;
22460;SDS011;11397;48.410;11.468;2022-08-21T17:10:46;5.38;;;5.18;;
22460;SDS011;11397;48.410;11.468;2022-08-21T17:15:48;6.22;;;6.03;;
22460;SDS011;11397;48.410;11.468;2022-08-21T17:20:52;5.20;;;5.00;;
22460;SDS011;11397;48.410;11.468;2022-08-21T17:25:54;5.35;;;5.15;;
22460;SDS011;11397;48.410;11.468;2022-08-21T17:30:57;5.40;;;5.20;;
22460;SDS011;11397;48.410;11.468;2022-08-21T17:36:03;4.97;;;4.80;;
22460;SDS011;11397;48.410;11.468;2022-08-21T17:41:04;5.38;;;5.18;;
22460;SDS011;11397;48.410;11.468;2022-08-21T17:46:07;5.65;;;5.45;;
22460;SDS011;11397;48.410;11.468;2022-08-21T17:51:12;5.53;;;5.32;;
22460;SDS011;11397;48.410;11.468;2022-08-21T17:56:17;5.93;;;5.72;;
22460;SDS011;11397;48.410;11.468;2022-08-21T18:01:19;5.50;;;5.30;;
22460;SDS011;11397;48.410;11.468;2022-08-21T18:06:22;6.20;;;6.00;;
22460;SDS011;11397;48.410;11.468;2022-08-21T18:11:26;5.50;;;5.30;;
22460;SDS011;11397;48.410;11.468;2022-08-21T18:16:29;5.53;;;5.32;;
22460;SDS011;11397;48.410;11.468;2022-08-21T18:21:34;5.78;;;5.57;;
22460;SDS011;11397;48.410;11.468;2022-08-21T18:26:36;5.80;;;5.60;;
22460;SDS011;11397;48.410;11.468;2022-08-21T18:31:39;5.70;;;5.50;;
22460;SDS011;11397;48.410;11.468;2022-08-21T18:36:44;5.78;;;5.57;;
22460;SDS011;11397;48.410;11.468;2022-08-21T18:41:46;5.88;;;5.68;;
22460;SDS011;11397;48.410;11.468;2022-08-21T18:46:48;6.63;;;6.43;;
22460;SDS011;11397;48.410;11.468;2022-08-21T18:51:53;5.95;;;5.75;;
22460;SDS011;11397;48.410;11.468;2022-08-21T18:56:54;6.95;;;6.75;;
22460;SDS011;11397;48.410;11.468;2022-08-21T19:01:56;6.18;;;5.97;;
22460;SDS011;11397;48.410;11.468;2022-08-21T19:06:59;6.88;;;6.68;;
22460;SDS011;11397;48.410;11.468;2022-08-21T19:12:01;6.38;;;6.18;;
22460;SDS011;11397;48.410;11.468;2022-08-21T19:17:03;6.32;;;6.13;;
22460;SDS011;11397;48.410;11.468;2022-08-21T19:22:06;6.18;;;5.97;;
22460;SDS011;11397;48.410;11.468;2022-08-21T19:27:08;6.15;;;5.95;;
22460;SDS011;11397;48.410;11.468;2022-08-21T19:32:11;6.25;;;6.05;;
22460;SDS011;11397;48.410;11.468;2022-08-21T19:37:14;6.35;;;6.15;;
22460;SDS011;11397;48.410;11.468;2022-08-21T19:42:16;6.47;;;6.28;;
22460;SDS011;11397;48.410;11.468;2022-08-21T19:47:20;6.95;;;6.75;;
22460;SDS011;11397;48.410;11.468;2022-08-21T19:52:25;6.72;;;6.47;;
22460;SDS011;11397;48.410;11.468;2022-08-21T19:57:27;6.45;;;6.25;;
22460;SDS011;11397;48.410;11.468;2022-08-21T20:02:28;7.47;;;7.20;;
22460;SDS011;11397;48.410;11.468;2022-08-21T20:07:31;6.88;;;6.68;;
22460;SDS011;11397;48.410;11.468;2022-08-21T20:12:33;6.90;;;6.70;;
22460;SDS011;11397;48.410;11.468;2022-08-21T20:17:35;7.18;;;6.95;;
22460;SDS011;11397;48.410;11.468;2022-08-21T20:22:39;7.30;;;7.05;;
22460;SDS011;11397;48.410;11.468;2022-08-21T20:27:41;7.15;;;6.95;;
22460;SDS011;11397;48.410;11.468;2022-08-21T20:32:43;6.47;;;6.28;;
22460;SDS011;11397;48.410;11.468;2022-08-21T20:37:46;6.43;;;6.22;;
22460;SDS011;11397;48.410;11.468;2022-08-21T20:42:49;6.70;;;6.50;;
22460;SDS011;11397;48.410;11.468;2022-08-21T20:47:55;6.63;;;6.43;;
22460;SDS011;11397;48.410;11.468;2022-08-21T20:53:01;6.97;;;6.78;;
22460;SDS011;11397;48.410;11.468;2022-08-21T20:58:05;6.68;;;6.38;;
22460;SDS011;11397;48.410;11.468;2022-08-21T21:03:08;7.10;;;6.90;;
22460;SDS011;11397;48.410;11.468;2022-08-21T21:08:14;7.40;;;7.10;;
22460;SDS011;11397;48.410;11.468;2022-08-21T21:13:19;7.18;;;6.97;;
22460;SDS011;11397;48.410;11.468;2022-08-21T21:18:24;7.30;;;7.05;;
22460;SDS011;11397;48.410;11.468;2022-08-21T21:23:29;6.85;;;6.65;;
22460;SDS011;11397;48.410;11.468;2022-08-21T21:28:35;6.70;;;6.50;;
22460;SDS011;11397;48.410;11.468;2022-08-21T21:33:38;6.45;;;6.25;;
22460;SDS011;11397;48.410;11.468;2022-08-21T21:38:44;6.35;;;6.15;;
22460;SDS011;11397;48.410;11.468;2022-08-21T21:43:55;7.00;;;6.80;;
22460;SDS011;11397;48.410;11.468;2022-08-21T21:49:04;7.63;;;7.32;;
22460;SDS011;11397;48.410;11.468;2022-08-21T21:54:17;6.35;;;6.15;;
22460;SDS011;11397;48.410;11.468;2022-08-21T21:59:25;6.15;;;5.95;;
22460;SDS011;11397;48.410;11.468;2022-08-21T22:04:30;6.90;;;6.70;;
22460;SDS011;11397;48.410;11.468;2022-08-21T22:09:42;6.80;;;6.60;;
22460;SDS011;11397;48.410;11.468;2022-08-21T22:14:43;6.78;;;6.57;;
22460;SDS011;11397;48.410;11.468;2022-08-21T22:19:45;6.63;;;6.43;;
22460;SDS011;11397;48.410;11.468;2022-08-21T22:24:52;7.07;;;6.88;;
22460;SDS011;11397;48.410;11.468;2022-08-21T22:29:55;7.40;;;7.10;;
22460;SDS011;11397;48.410;11.468;2022-08-21T22:35:00;7.75;;;7.45;;
22460;SDS011;11397;48.410;11.468;2022-08-21T22:40:04;7.68;;;7.38;;
22460;SDS011;11397;48.410;11.468;2022-08-21T22:45:07;7.22;;;7.00;;
22460;SDS011;11397;48.410;11.468;2022-08-21T22:50:15;7.75;;;7.45;;
22460;SDS011;11397;48.410;11.468;2022-08-21T22:55:22;7.68;;;7.38;;
22460;SDS011;11397;48.410;11.468;2022-08-21T23:00:33;6.35;;;6.15;;
22460;SDS011;11397;48.410;11.468;2022-08-21T23:05:36;7.07;;;6.88;;
22460;SDS011;11397;48.410;11.468;2022-08-21T23:10:39;6.70;;;6.50;;
22460;SDS011;11397;48.410;11.468;2022-08-21T23:15:43;7.03;;;6.82;;
22460;SDS011;11397;48.410;11.468;2022-08-21T23:20:47;7.57;;;7.28;;
22460;SDS011;11397;48.410;11.468;2022-08-21T23:25:56;7.35;;;7.10;;
22460;SDS011;11397;48.410;11.468;2022-08-21T23:31:04;7.82;;;7.53;;
22460;SDS011;11397;48.410;11.468;2022-08-21T23:36:10;7.47;;;7.18;;
22460;SDS011;11397;48.410;11.468;2022-08-21T23:41:35;7.13;;;6.93;;
22460;SDS011;11397;48.410;11.468;2022-08-21T23:46:42;6.95;;;6.75;;
22460;SDS011;11397;48.410;11.468;2022-08-21T23:51:46;7.05;;;6.85;;
22460;SDS011;11397;48.410;11.468;2022-08-21T23:56:59;8.10;;;7.80;;
